Main page
METAR-TAF:

METAR-TAF

Airports :

Lengpui Airport

Aizawl, India

latitude: 23-50-18N, longitude: 92-37-13E, elevation: 405 m

Current weather observation

The report was made 21 minutes ago, at 07:00 UTC
Wind 5 kt from the North/Northwest
Temperature 25°C
Humidity 50%
Pressure 1017 hPa
Visibility: 3000 m
Few clouds at a height of 1800 ft
haze

METAR: VELP 240700Z 34005KT 3000 HZ FEW018 25/14 Q1017 BECMG 5000 HZ

Time: 12:51 (07:21 UTC)

Forecast

The report was made 2 hours and 21 minutes ago, at 05:00 UTC
Forecast valid from 24 at 06 UTC to 24 at 15 UTC
Wind kt from the North
Visibility: 1200 m
Few clouds at a height of 1000 ft
Scattered clouds at a height of 1600 ft
mist
Becoming
from 24 at 07 UTC to 24 at 09 UTC
Wind 6 kt from the North/Northwest
Visibility: 2500 m
Few clouds at a height of 1600 ft
haze,

TAF: VELP 240500Z 2406/2415 00000KT 1200 BR FEW010 SCT016 BECMG 2407/2409 34006KT 2500 HZ FEW016

Weather observations and forecasts of more than 4000 airports (METAR and TAF reports).

The available stations are represented by yellow and red dots on the map.

Hover mouse over dot to see the name of the station.

Then click to see weather observations and forecasts.

To change the map : click on the green buttons with a black cross to zoom in, on the green button with a dash to zoom out, or on the green arrows for adjacent maps.


METAR-TAF: